createdAt,value
2019-03-16T00:01:56.138Z,60.99
2019-03-16T00:04:31.628Z,61.41
2019-03-16T00:07:32.157Z,61.25
2019-03-16T00:10:08.739Z,60.94
2019-03-16T00:12:55.847Z,62.06
2019-03-16T00:15:43.269Z,61.43
2019-03-16T00:18:30.901Z,62.16
2019-03-16T00:21:18.733Z,62.10
2019-03-16T00:24:06.919Z,62.17
2019-03-16T00:26:54.502Z,62.71
2019-03-16T00:29:41.928Z,62.27
2019-03-16T00:32:29.266Z,63.10
2019-03-16T00:35:16.571Z,62.63
2019-03-16T00:38:04.199Z,62.37
2019-03-16T00:40:51.547Z,61.81
2019-03-16T00:43:38.969Z,61.77
2019-03-16T00:46:26.452Z,61.32
2019-03-16T00:49:13.800Z,60.72
2019-03-16T00:52:01.221Z,61.02
2019-03-16T00:54:48.336Z,60.63
2019-03-16T00:57:35.862Z,60.99
2019-03-16T01:00:23.388Z,61.27
2019-03-16T01:03:10.711Z,62.50
2019-03-16T01:05:58.141Z,62.82
2019-03-16T01:08:45.987Z,62.95
2019-03-16T01:11:33.391Z,62.87
2019-03-16T01:14:20.816Z,62.76
2019-03-16T01:17:08.342Z,62.62
2019-03-16T01:19:55.971Z,62.97
2019-03-16T01:22:43.395Z,62.77
2019-03-16T01:25:30.820Z,62.39
2019-03-16T01:28:18.449Z,61.37
2019-03-16T01:31:05.873Z,61.16
2019-03-16T01:33:53.506Z,61.17
2019-03-16T01:36:40.720Z,60.37
2019-03-16T01:39:28.555Z,61.23
2019-03-16T01:42:15.980Z,60.78
2019-03-16T01:45:03.530Z,61.22
2019-03-16T01:47:51.031Z,61.68
2019-03-16T01:50:38.456Z,61.76
2019-03-16T01:53:26.089Z,61.19
2019-03-16T01:56:13.304Z,61.14
2019-03-16T01:59:01.244Z,60.68
2019-03-16T02:01:49.424Z,60.49
2019-03-16T02:04:36.913Z,60.22
2019-03-16T02:07:24.434Z,60.21
2019-03-16T02:10:12.268Z,60.31
2019-03-16T02:12:59.901Z,60.62
2019-03-16T02:15:47.527Z,59.84
2019-03-16T02:18:35.258Z,59.92
2019-03-16T02:21:22.477Z,60.65
2019-03-16T02:24:10.003Z,61.39
2019-03-16T02:26:57.632Z,60.87
2019-03-16T02:29:45.466Z,60.53
2019-03-16T02:32:32.906Z,60.51
2019-03-16T02:35:20.423Z,60.23
2019-03-16T02:38:07.759Z,59.93
2019-03-16T02:40:55.382Z,60.03
2019-03-16T02:43:43.214Z,60.53
2019-03-16T02:46:30.973Z,61.02
2019-03-16T02:49:18.677Z,60.39
2019-03-16T02:52:06.093Z,60.36
2019-03-16T02:54:53.105Z,60.19
2019-03-16T02:57:41.244Z,59.97
2019-03-16T03:00:29.181Z,60.49
2019-03-16T03:03:28.700Z,60.05
2019-03-16T03:06:05.873Z,60.47
2019-03-16T03:08:53.311Z,60.54
2019-03-16T03:11:41.029Z,60.98
2019-03-16T03:14:28.152Z,61.33
2019-03-16T03:17:15.880Z,61.56
2019-03-16T03:20:04.940Z,61.73
2019-03-16T03:22:52.880Z,62.25
2019-03-16T03:25:40.404Z,62.07
2019-03-16T03:28:27.831Z,62.28
2019-03-16T03:31:15.458Z,62.14
2019-03-16T03:34:03.201Z,62.93
2019-03-16T03:36:51.124Z,63.35
2019-03-16T03:39:38.240Z,64.95
2019-03-16T03:42:25.668Z,64.95
2019-03-16T03:45:14.138Z,63.81
2019-03-16T03:48:01.644Z,63.06
2019-03-16T03:50:49.066Z,62.86
2019-03-16T03:53:40.805Z,63.19
2019-03-16T03:56:26.060Z,63.63
2019-03-16T03:59:13.691Z,63.16
2019-03-16T04:02:01.317Z,63.49
2019-03-16T04:04:48.845Z,63.68
2019-03-16T04:07:36.891Z,63.88
2019-03-16T04:10:24.821Z,63.58
2019-03-16T04:13:12.643Z,63.11
2019-03-16T04:16:00.309Z,62.91
2019-03-16T04:18:51.460Z,62.86
2019-03-16T04:21:36.873Z,62.92
2019-03-16T04:24:24.301Z,62.86
2019-03-16T04:27:16.331Z,62.91
2019-03-16T04:30:01.619Z,62.92
2019-03-16T04:32:48.616Z,62.78
2019-03-16T04:35:36.142Z,62.69
2019-03-16T04:38:24.179Z,62.94
2019-03-16T04:41:11.402Z,62.81
2019-03-16T04:43:59.234Z,63.09
2019-03-16T04:46:46.506Z,63.42
2019-03-16T04:49:34.186Z,63.61
2019-03-16T04:52:21.819Z,63.43
2019-03-16T04:55:10.057Z,63.49
2019-03-16T04:57:57.493Z,64.59
2019-03-16T05:00:45.518Z,65.87
2019-03-16T05:03:32.944Z,66.54
2019-03-16T05:06:20.268Z,66.63
2019-03-16T05:09:08.303Z,66.90
2019-03-16T05:11:55.523Z,67.09
2019-03-16T05:14:43.255Z,66.46
2019-03-16T05:17:30.677Z,66.77
2019-03-16T05:20:17.905Z,66.27
2019-03-16T05:23:05.016Z,66.32
2019-03-16T05:25:52.442Z,67.11
2019-03-16T05:28:40.178Z,68.50
2019-03-16T05:31:27.697Z,66.98
2019-03-16T05:34:15.223Z,66.30
2019-03-16T05:37:02.646Z,66.52
2019-03-16T05:39:50.071Z,66.43
2019-03-16T05:42:38.011Z,66.32
2019-03-16T05:45:25.535Z,66.91
2019-03-16T05:48:12.665Z,66.82
2019-03-16T05:51:00.383Z,66.85
2019-03-16T05:53:47.910Z,68.50
2019-03-16T05:56:35.026Z,68.46
2019-03-16T05:59:22.690Z,69.17
2019-03-16T06:02:10.488Z,68.57
2019-03-16T06:05:09.889Z,69.70
2019-03-16T06:07:47.590Z,69.81
2019-03-16T06:10:35.426Z,70.90
2019-03-16T06:13:23.159Z,69.41
2019-03-16T06:16:10.684Z,68.54
2019-03-16T06:18:59.134Z,68.39
2019-03-16T06:21:46.655Z,67.42
2019-03-16T06:24:33.924Z,67.04
2019-03-16T06:27:21.196Z,67.32
2019-03-16T06:30:13.903Z,67.11
2019-03-16T06:33:01.475Z,67.05
2019-03-16T06:35:48.794Z,67.04
2019-03-16T06:38:36.325Z,68.23
2019-03-16T06:41:23.746Z,68.39
2019-03-16T06:44:11.584Z,69.34
2019-03-16T06:46:59.313Z,68.40
2019-03-16T06:49:47.011Z,69.13
2019-03-16T06:52:34.575Z,68.70
2019-03-16T06:55:22.214Z,68.04
2019-03-16T06:58:10.048Z,67.72
2019-03-16T07:00:57.660Z,68.07
2019-03-16T07:03:45.192Z,67.54
2019-03-16T07:06:32.309Z,68.56
2019-03-16T07:09:20.035Z,68.44
2019-03-16T07:12:07.561Z,67.66
2019-03-16T07:14:55.088Z,67.95
2019-03-16T07:17:42.822Z,69.06
2019-03-16T07:20:30.436Z,69.10
2019-03-16T07:23:17.629Z,69.53
2019-03-16T07:26:14.604Z,70.05
2019-03-16T07:28:54.770Z,69.94
2019-03-16T07:31:42.402Z,69.26
2019-03-16T07:34:29.879Z,69.25
2019-03-16T07:37:17.143Z,68.36
2019-03-16T07:40:08.048Z,68.51
2019-03-16T07:42:56.530Z,69.16
2019-03-16T07:45:44.022Z,68.73
2019-03-16T07:48:31.243Z,69.07
2019-03-16T07:51:18.876Z,68.92
2019-03-16T07:54:07.528Z,68.67
2019-03-16T07:56:55.262Z,68.16
2019-03-16T07:59:42.578Z,68.49
2019-03-16T08:02:29.835Z,66.99
2019-03-16T08:05:19.199Z,68.29
2019-03-16T08:08:06.386Z,67.85
2019-03-16T08:10:54.019Z,67.68
2019-03-16T08:13:41.543Z,66.91
2019-03-16T08:16:28.966Z,66.18
2019-03-16T08:19:16.803Z,66.96
2019-03-16T08:22:04.228Z,66.23
2019-03-16T08:24:51.755Z,65.93
2019-03-16T08:27:39.106Z,65.72
2019-03-16T08:30:26.975Z,65.66
2019-03-16T08:33:14.275Z,65.14
2019-03-16T08:36:01.651Z,64.30
2019-03-16T08:38:49.077Z,64.12
2019-03-16T08:41:36.946Z,64.09
2019-03-16T08:44:24.129Z,64.68
2019-03-16T08:47:11.766Z,64.71
2019-03-16T08:50:00.486Z,64.98
2019-03-16T08:52:48.358Z,64.88
2019-03-16T08:55:35.575Z,64.40
2019-03-16T08:58:24.116Z,64.38
2019-03-16T09:01:11.809Z,64.34
2019-03-16T09:03:59.481Z,64.46
2019-03-16T09:06:47.493Z,64.53
2019-03-16T09:09:34.439Z,64.55
2019-03-16T09:12:21.869Z,65.63
2019-03-16T09:15:14.807Z,66.03
2019-03-16T09:18:02.029Z,66.50
2019-03-16T09:20:49.655Z,66.15
2019-03-16T09:23:37.623Z,67.05
2019-03-16T09:26:25.048Z,67.82
2019-03-16T09:29:15.298Z,66.99
2019-03-16T09:32:01.706Z,67.11
2019-03-16T09:34:49.341Z,66.54
2019-03-16T09:37:37.067Z,67.48
2019-03-16T09:40:24.988Z,68.18
2019-03-16T09:43:12.636Z,67.78
2019-03-16T09:46:00.363Z,68.01
2019-03-16T09:48:48.202Z,69.07
2019-03-16T09:51:36.648Z,70.08
2019-03-16T09:54:24.379Z,70.67
2019-03-16T09:57:12.161Z,70.70
2019-03-16T10:00:00.415Z,69.15
2019-03-16T10:02:48.082Z,70.86
2019-03-16T10:05:36.226Z,69.99
2019-03-16T10:08:24.068Z,68.94
2019-03-16T10:11:11.588Z,68.98
2019-03-16T10:13:58.701Z,69.28
2019-03-16T10:16:46.025Z,69.74
2019-03-16T10:19:33.753Z,69.40
2019-03-16T10:22:21.612Z,69.77
2019-03-16T10:25:10.261Z,71.27
2019-03-16T10:27:57.671Z,71.79
2019-03-16T10:30:44.883Z,71.83
2019-03-16T10:33:33.025Z,71.22
2019-03-16T10:36:20.681Z,70.57
2019-03-16T10:39:08.285Z,71.77
2019-03-16T10:41:55.914Z,70.81
2019-03-16T10:44:43.440Z,70.66
2019-03-16T10:47:31.272Z,69.77
2019-03-16T10:50:19.495Z,70.67
2019-03-16T10:53:07.149Z,71.19
2019-03-16T10:55:54.980Z,70.56
2019-03-16T10:58:42.400Z,69.97
2019-03-16T11:01:30.350Z,69.46
2019-03-16T11:04:18.894Z,68.49
2019-03-16T11:07:06.111Z,68.57
2019-03-16T11:09:53.536Z,68.22
2019-03-16T11:12:41.581Z,67.27
2019-03-16T11:15:29.508Z,67.42
2019-03-16T11:18:17.034Z,66.60
2019-03-16T11:21:28.274Z,66.57
2019-03-16T11:24:15.947Z,65.90
2019-03-16T11:27:03.782Z,66.64
2019-03-16T11:29:52.438Z,65.69
2019-03-16T11:32:40.638Z,67.00
2019-03-16T11:35:29.439Z,66.34
2019-03-16T11:38:17.164Z,66.35
2019-03-16T11:41:04.282Z,65.27
2019-03-16T11:43:52.253Z,64.55
2019-03-16T11:46:40.421Z,65.87
2019-03-16T11:49:28.424Z,65.80
2019-03-16T11:52:15.729Z,66.32
2019-03-16T11:55:04.267Z,65.86
2019-03-16T11:57:51.897Z,65.00
2019-03-16T12:00:39.119Z,64.75
2019-03-16T12:03:26.957Z,65.67
2019-03-16T12:06:14.395Z,66.17
2019-03-16T12:09:02.211Z,64.05
2019-03-16T12:11:50.964Z,64.40
2019-03-16T12:14:38.389Z,64.09
2019-03-16T12:17:26.120Z,63.22
2019-03-16T12:20:18.824Z,64.61
2019-03-16T12:23:06.191Z,64.66
2019-03-16T12:25:54.128Z,61.90
2019-03-16T12:28:42.049Z,62.11
2019-03-16T12:31:29.796Z,63.65
2019-03-16T12:34:17.323Z,63.24
2019-03-16T12:37:05.054Z,63.68
2019-03-16T12:39:52.793Z,65.27
2019-03-16T12:42:41.028Z,64.53
2019-03-16T12:45:28.599Z,64.87
2019-03-16T12:48:16.288Z,64.99
2019-03-16T12:51:04.333Z,66.19
2019-03-16T12:53:51.659Z,66.30
2019-03-16T12:56:39.786Z,66.61
2019-03-16T12:59:27.313Z,66.20
2019-03-16T13:02:15.352Z,65.50
2019-03-16T13:05:03.399Z,66.92
2019-03-16T13:07:50.916Z,67.30
2019-03-16T13:10:38.141Z,67.36
2019-03-16T13:13:25.871Z,66.44
2019-03-16T13:16:13.604Z,65.29
2019-03-16T13:19:00.826Z,64.39
2019-03-16T13:21:48.630Z,64.61
2019-03-16T13:24:36.076Z,65.75
2019-03-16T13:27:23.705Z,66.47
2019-03-16T13:30:16.572Z,66.67
2019-03-16T13:33:03.780Z,66.37
2019-03-16T13:35:51.456Z,66.09
2019-03-16T13:38:38.835Z,64.14
2019-03-16T13:41:26.666Z,64.00
2019-03-16T13:44:14.087Z,64.60
2019-03-16T13:47:02.672Z,65.14
2019-03-16T13:49:49.964Z,66.86
2019-03-16T13:52:37.384Z,67.03
2019-03-16T13:55:24.912Z,66.66
2019-03-16T13:58:13.767Z,67.33
2019-03-16T14:01:01.192Z,67.49
2019-03-16T14:03:48.620Z,67.63
2019-03-16T14:06:36.551Z,67.08
2019-03-16T14:09:24.286Z,67.28
2019-03-16T14:12:11.815Z,66.12
2019-03-16T14:14:59.136Z,66.33
2019-03-16T14:17:46.668Z,67.42
2019-03-16T14:20:34.312Z,67.04
2019-03-16T14:23:22.026Z,66.44
2019-03-16T14:26:09.445Z,65.48
2019-03-16T14:28:57.073Z,65.90
2019-03-16T14:31:44.807Z,66.76
2019-03-16T14:34:32.330Z,64.82
2019-03-16T14:37:19.859Z,65.15
2019-03-16T14:40:12.770Z,66.41
2019-03-16T14:43:00.550Z,66.21
2019-03-16T14:45:49.126Z,66.44
2019-03-16T14:48:36.831Z,65.33
2019-03-16T14:51:25.375Z,63.70
2019-03-16T14:54:12.901Z,64.14
2019-03-16T14:57:01.958Z,64.48
2019-03-16T14:59:48.585Z,63.81
2019-03-16T15:02:36.096Z,64.37
2019-03-16T15:05:23.730Z,64.17
2019-03-16T15:08:11.148Z,63.79
2019-03-16T15:10:58.565Z,64.27
2019-03-16T15:13:46.512Z,64.20
2019-03-16T15:16:34.447Z,63.46
2019-03-16T15:19:22.287Z,63.09
2019-03-16T15:22:19.388Z,62.80
2019-03-16T15:25:11.266Z,64.22
2019-03-16T15:27:58.390Z,65.71
2019-03-16T15:30:50.704Z,65.18
2019-03-16T15:33:35.992Z,65.60
2019-03-16T15:36:23.724Z,64.54
2019-03-16T15:39:11.558Z,64.31
2019-03-16T15:41:59.389Z,64.42
2019-03-16T15:44:47.017Z,64.38
2019-03-16T15:47:34.555Z,63.84
2019-03-16T15:50:22.074Z,63.39
2019-03-16T15:53:10.011Z,64.14
2019-03-16T15:55:57.943Z,63.28
2019-03-16T15:58:46.706Z,63.75
2019-03-16T16:01:34.428Z,63.11
2019-03-16T16:04:22.474Z,62.18
2019-03-16T16:07:10.201Z,62.50
2019-03-16T16:09:57.520Z,63.31
2019-03-16T16:12:44.854Z,63.94
2019-03-16T16:15:32.284Z,64.78
2019-03-16T16:18:21.434Z,64.66
2019-03-16T16:21:09.270Z,64.58
2019-03-16T16:23:56.839Z,65.73
2019-03-16T16:26:44.628Z,65.37
2019-03-16T16:29:32.256Z,64.81
2019-03-16T16:32:19.679Z,64.70
2019-03-16T16:35:09.183Z,65.61
2019-03-16T16:37:56.681Z,66.24
2019-03-16T16:40:44.410Z,65.30
2019-03-16T16:43:32.149Z,66.17
2019-03-16T16:46:19.670Z,66.27
2019-03-16T16:49:07.297Z,66.44
2019-03-16T16:51:55.131Z,65.36
2019-03-16T16:54:42.864Z,65.87
2019-03-16T16:57:30.598Z,65.36
2019-03-16T17:00:22.544Z,65.34
2019-03-16T17:03:10.153Z,65.11
2019-03-16T17:05:57.679Z,65.19
2019-03-16T17:08:44.898Z,64.29
2019-03-16T17:11:32.220Z,64.70
2019-03-16T17:14:20.053Z,64.40
2019-03-16T17:17:07.787Z,64.10
2019-03-16T17:19:55.727Z,63.89
2019-03-16T17:22:43.256Z,64.42
2019-03-16T17:25:30.777Z,64.18
2019-03-16T17:28:18.507Z,63.58
2019-03-16T17:31:09.208Z,63.51
2019-03-16T17:33:57.041Z,63.41
2019-03-16T17:36:44.467Z,63.71
2019-03-16T17:39:31.788Z,62.78
2019-03-16T17:42:19.518Z,62.91
2019-03-16T17:45:10.007Z,63.12
2019-03-16T17:47:57.658Z,62.01
2019-03-16T17:50:45.275Z,62.46
2019-03-16T17:53:32.712Z,62.09
2019-03-16T17:56:20.026Z,62.14
2019-03-16T17:59:07.647Z,61.48
2019-03-16T18:01:55.384Z,60.92
2019-03-16T18:04:43.205Z,60.46
2019-03-16T18:07:30.946Z,61.11
2019-03-16T18:10:18.573Z,62.43
2019-03-16T18:13:05.899Z,61.33
2019-03-16T18:15:53.629Z,60.33
2019-03-16T18:18:41.155Z,60.15
2019-03-16T18:21:28.685Z,61.09
2019-03-16T18:24:16.519Z,61.35
2019-03-16T18:27:04.045Z,61.13
2019-03-16T18:29:51.776Z,60.93
2019-03-16T18:32:39.404Z,61.09
2019-03-16T18:35:27.140Z,61.38
2019-03-16T18:38:14.865Z,61.95
2019-03-16T18:41:02.309Z,60.88
2019-03-16T18:43:49.716Z,62.13
2019-03-16T18:46:37.142Z,62.06
2019-03-16T18:49:24.256Z,61.30
2019-03-16T18:52:11.781Z,61.39
2019-03-16T18:54:59.415Z,60.95
2019-03-16T18:57:46.844Z,61.37
2019-03-16T19:00:34.461Z,61.69
2019-03-16T19:03:22.193Z,61.13
2019-03-16T19:06:10.128Z,61.65
2019-03-16T19:08:57.965Z,61.75
2019-03-16T19:11:46.005Z,61.28
2019-03-16T19:14:33.426Z,60.52
2019-03-16T19:17:21.259Z,61.04
2019-03-16T19:20:16.990Z,61.45
2019-03-16T19:23:04.495Z,60.46
2019-03-16T19:25:51.934Z,60.26
2019-03-16T19:28:39.779Z,59.84
2019-03-16T19:31:27.600Z,60.52
2019-03-16T19:34:14.819Z,60.44
2019-03-16T19:37:02.361Z,59.55
2019-03-16T19:39:49.766Z,60.25
2019-03-16T19:42:37.203Z,60.02
2019-03-16T19:45:24.820Z,59.41
2019-03-16T19:48:12.633Z,59.97
2019-03-16T19:50:59.671Z,60.26
2019-03-16T19:53:47.503Z,59.72
2019-03-16T19:56:35.028Z,59.40
2019-03-16T19:59:22.968Z,59.93
2019-03-16T20:02:10.696Z,58.63
2019-03-16T20:04:57.815Z,59.92
2019-03-16T20:07:45.479Z,59.09
2019-03-16T20:10:33.290Z,59.23
2019-03-16T20:13:20.710Z,59.32
2019-03-16T20:16:08.021Z,58.41
2019-03-16T20:18:55.653Z,58.75
2019-03-16T20:21:43.076Z,58.91
2019-03-16T20:24:30.705Z,59.63
2019-03-16T20:27:18.442Z,59.32
2019-03-16T20:30:13.918Z,59.11
2019-03-16T20:33:04.088Z,59.00
2019-03-16T20:35:50.641Z,59.35
2019-03-16T20:38:38.067Z,58.42
2019-03-16T20:41:35.663Z,58.56
2019-03-16T20:44:14.963Z,58.74
2019-03-16T20:47:02.749Z,59.31
2019-03-16T20:49:50.325Z,58.86
2019-03-16T20:52:37.749Z,58.91
2019-03-16T20:55:25.584Z,59.09
2019-03-16T20:58:12.802Z,59.20
2019-03-16T21:01:00.300Z,59.78
2019-03-16T21:03:47.889Z,59.20
2019-03-16T21:06:35.277Z,59.83
2019-03-16T21:09:23.008Z,59.68
2019-03-16T21:12:10.741Z,59.46
2019-03-16T21:14:58.931Z,59.06
2019-03-16T21:17:46.000Z,58.20
2019-03-16T21:20:33.526Z,58.97
2019-03-16T21:23:21.255Z,58.11
2019-03-16T21:26:08.887Z,58.76
2019-03-16T21:28:56.323Z,58.64
2019-03-16T21:31:43.737Z,57.71
2019-03-16T21:34:33.414Z,57.08
2019-03-16T21:37:21.245Z,58.27
2019-03-16T21:40:13.788Z,58.29
2019-03-16T21:43:01.114Z,59.50
2019-03-16T21:45:48.843Z,59.51
2019-03-16T21:48:36.270Z,60.17
2019-03-16T21:51:24.202Z,59.22
2019-03-16T21:54:12.036Z,60.13
2019-03-16T21:56:59.909Z,60.32
2019-03-16T21:59:47.499Z,59.67
2019-03-16T22:02:35.337Z,60.12
2019-03-16T22:05:23.166Z,61.40
2019-03-16T22:08:11.007Z,61.13
2019-03-16T22:10:58.424Z,61.24
2019-03-16T22:13:45.950Z,60.40
2019-03-16T22:16:33.480Z,59.63
2019-03-16T22:19:21.312Z,59.84
2019-03-16T22:22:08.939Z,60.79
2019-03-16T22:24:56.571Z,60.95
2019-03-16T22:27:44.420Z,60.26
2019-03-16T22:30:31.624Z,60.96
2019-03-16T22:33:19.355Z,61.67
2019-03-16T22:36:06.368Z,61.82
2019-03-16T22:38:53.794Z,61.92
2019-03-16T22:41:41.323Z,62.19
2019-03-16T22:44:28.544Z,62.72
2019-03-16T22:47:15.552Z,62.26
2019-03-16T22:50:03.466Z,62.90
2019-03-16T22:52:50.579Z,62.79
2019-03-16T22:55:38.136Z,61.28
2019-03-16T22:58:25.565Z,62.02
2019-03-16T23:01:13.191Z,60.89
2019-03-16T23:04:06.736Z,61.81
2019-03-16T23:06:50.185Z,61.45
2019-03-16T23:09:38.020Z,62.89
2019-03-16T23:12:27.504Z,63.71
2019-03-16T23:15:15.433Z,63.61
2019-03-16T23:18:03.367Z,63.41
2019-03-16T23:20:51.205Z,62.74
2019-03-16T23:23:38.519Z,62.63
2019-03-16T23:26:37.928Z,64.06
2019-03-16T23:29:16.240Z,64.61
2019-03-16T23:32:03.469Z,64.53
2019-03-16T23:34:50.884Z,64.27
2019-03-16T23:37:39.642Z,63.50
2019-03-16T23:40:26.671Z,62.56
2019-03-16T23:43:15.098Z,63.55
2019-03-16T23:46:04.366Z,63.81
2019-03-16T23:48:51.996Z,62.95
2019-03-16T23:51:39.444Z,63.33
2019-03-16T23:54:27.080Z,63.55
2019-03-16T23:57:14.266Z,63.70
